sensor_id;sensor_type;location;lat;lon;timestamp;temperature;humidity
19622;DHT22;9958;33.196;-97.114;2023-02-08T00:01:21;8.40;99.90
19622;DHT22;9958;33.196;-97.114;2023-02-08T00:03:52;8.40;99.90
19622;DHT22;9958;33.196;-97.114;2023-02-08T00:06:20;8.40;99.90
19622;DHT22;9958;33.196;-97.114;2023-02-08T00:08:49;8.50;99.90
19622;DHT22;9958;33.196;-97.114;2023-02-08T00:11:17;8.40;99.90
19622;DHT22;9958;33.196;-97.114;2023-02-08T00:13:46;8.40;99.90
19622;DHT22;9958;33.196;-97.114;2023-02-08T00:16:15;8.50;99.90
19622;DHT22;9958;33.196;-97.114;2023-02-08T00:18:45;8.40;99.90
19622;DHT22;9958;33.196;-97.114;2023-02-08T00:21:15;8.40;99.90
19622;DHT22;9958;33.196;-97.114;2023-02-08T00:23:43;8.40;99.90
19622;DHT22;9958;33.196;-97.114;2023-02-08T00:26:13;8.40;99.90
19622;DHT22;9958;33.196;-97.114;2023-02-08T00:28:41;8.40;99.90
19622;DHT22;9958;33.196;-97.114;2023-02-08T00:31:10;8.40;99.90
19622;DHT22;9958;33.196;-97.114;2023-02-08T00:33:38;8.40;99.90
19622;DHT22;9958;33.196;-97.114;2023-02-08T00:36:09;8.40;99.90
19622;DHT22;9958;33.196;-97.114;2023-02-08T00:38:38;8.40;99.90
19622;DHT22;9958;33.196;-97.114;2023-02-08T00:41:07;8.40;99.90
19622;DHT22;9958;33.196;-97.114;2023-02-08T00:43:35;8.40;99.90
19622;DHT22;9958;33.196;-97.114;2023-02-08T00:46:04;8.30;99.90
19622;DHT22;9958;33.196;-97.114;2023-02-08T00:48:33;8.30;99.90
19622;DHT22;9958;33.196;-97.114;2023-02-08T00:51:03;8.30;99.90
19622;DHT22;9958;33.196;-97.114;2023-02-08T00:53:34;8.30;99.90
19622;DHT22;9958;33.196;-97.114;2023-02-08T00:56:03;8.30;99.90
19622;DHT22;9958;33.196;-97.114;2023-02-08T00:58:32;8.30;99.90
19622;DHT22;9958;33.196;-97.114;2023-02-08T01:01:02;8.30;99.90
19622;DHT22;9958;33.196;-97.114;2023-02-08T01:03:32;8.30;99.90
19622;DHT22;9958;33.196;-97.114;2023-02-08T01:06:02;8.30;99.90
19622;DHT22;9958;33.196;-97.114;2023-02-08T01:08:32;8.30;99.90
19622;DHT22;9958;33.196;-97.114;2023-02-08T01:11:05;8.30;99.90
19622;DHT22;9958;33.196;-97.114;2023-02-08T01:13:34;8.40;99.90
19622;DHT22;9958;33.196;-97.114;2023-02-08T01:16:08;8.40;99.90
19622;DHT22;9958;33.196;-97.114;2023-02-08T01:18:37;8.30;99.90
19622;DHT22;9958;33.196;-97.114;2023-02-08T01:21:06;8.40;99.90
19622;DHT22;9958;33.196;-97.114;2023-02-08T01:23:37;8.40;99.90
19622;DHT22;9958;33.196;-97.114;2023-02-08T01:26:07;8.40;99.90
19622;DHT22;9958;33.196;-97.114;2023-02-08T01:28:37;8.30;99.90
19622;DHT22;9958;33.196;-97.114;2023-02-08T01:31:06;8.40;99.90
19622;DHT22;9958;33.196;-97.114;2023-02-08T01:33:35;8.40;99.90
19622;DHT22;9958;33.196;-97.114;2023-02-08T01:36:04;8.40;99.90
19622;DHT22;9958;33.196;-97.114;2023-02-08T01:38:34;8.40;99.90
19622;DHT22;9958;33.196;-97.114;2023-02-08T01:41:05;8.40;99.90
19622;DHT22;9958;33.196;-97.114;2023-02-08T01:43:58;8.40;99.90
19622;DHT22;9958;33.196;-97.114;2023-02-08T01:46:26;8.40;99.90
19622;DHT22;9958;33.196;-97.114;2023-02-08T01:48:58;8.40;99.90
19622;DHT22;9958;33.196;-97.114;2023-02-08T01:51:29;8.40;99.90
19622;DHT22;9958;33.196;-97.114;2023-02-08T01:54:00;8.40;99.90
19622;DHT22;9958;33.196;-97.114;2023-02-08T01:56:36;8.40;99.90
19622;DHT22;9958;33.196;-97.114;2023-02-08T01:59:10;8.40;99.90
19622;DHT22;9958;33.196;-97.114;2023-02-08T02:01:39;8.40;99.90
19622;DHT22;9958;33.196;-97.114;2023-02-08T02:04:09;8.30;99.90
19622;DHT22;9958;33.196;-97.114;2023-02-08T02:06:41;8.40;99.90
19622;DHT22;9958;33.196;-97.114;2023-02-08T02:09:14;8.30;99.90
19622;DHT22;9958;33.196;-97.114;2023-02-08T02:11:45;8.40;99.90
19622;DHT22;9958;33.196;-97.114;2023-02-08T02:14:14;8.40;99.90
19622;DHT22;9958;33.196;-97.114;2023-02-08T02:16:42;8.40;99.90
19622;DHT22;9958;33.196;-97.114;2023-02-08T02:19:14;8.40;99.90
19622;DHT22;9958;33.196;-97.114;2023-02-08T02:21:52;8.40;99.90
19622;DHT22;9958;33.196;-97.114;2023-02-08T02:28:03;8.30;99.90
19622;DHT22;9958;33.196;-97.114;2023-02-08T02:31:02;8.30;99.90
19622;DHT22;9958;33.196;-97.114;2023-02-08T02:33:59;8.30;99.90
19622;DHT22;9958;33.196;-97.114;2023-02-08T02:36:34;8.30;99.90
19622;DHT22;9958;33.196;-97.114;2023-02-08T02:39:14;8.30;99.90
19622;DHT22;9958;33.196;-97.114;2023-02-08T02:41:52;8.30;99.90
19622;DHT22;9958;33.196;-97.114;2023-02-08T02:44:49;8.30;99.90
19622;DHT22;9958;33.196;-97.114;2023-02-08T02:47:28;8.30;99.90
19622;DHT22;9958;33.196;-97.114;2023-02-08T02:50:03;8.30;99.90
19622;DHT22;9958;33.196;-97.114;2023-02-08T02:52:37;8.30;99.90
19622;DHT22;9958;33.196;-97.114;2023-02-08T02:55:11;8.30;99.90
19622;DHT22;9958;33.196;-97.114;2023-02-08T02:57:43;8.30;99.90
19622;DHT22;9958;33.196;-97.114;2023-02-08T03:00:20;8.30;99.90
19622;DHT22;9958;33.196;-97.114;2023-02-08T03:02:49;8.30;99.90
19622;DHT22;9958;33.196;-97.114;2023-02-08T03:05:20;8.30;99.90
19622;DHT22;9958;33.196;-97.114;2023-02-08T03:08:10;8.40;99.90
19622;DHT22;9958;33.196;-97.114;2023-02-08T03:11:16;8.30;99.90
19622;DHT22;9958;33.196;-97.114;2023-02-08T03:14:02;8.40;99.90
19622;DHT22;9958;33.196;-97.114;2023-02-08T03:16:41;8.40;99.90
19622;DHT22;9958;33.196;-97.114;2023-02-08T03:19:21;8.40;99.90
19622;DHT22;9958;33.196;-97.114;2023-02-08T03:21:59;8.40;99.90
19622;DHT22;9958;33.196;-97.114;2023-02-08T03:24:35;8.40;99.90
19622;DHT22;9958;33.196;-97.114;2023-02-08T03:27:07;8.50;99.90
19622;DHT22;9958;33.196;-97.114;2023-02-08T03:29:42;8.50;99.90
19622;DHT22;9958;33.196;-97.114;2023-02-08T03:32:15;8.50;99.90
19622;DHT22;9958;33.196;-97.114;2023-02-08T03:34:47;8.50;99.90
19622;DHT22;9958;33.196;-97.114;2023-02-08T03:37:21;8.50;99.90
19622;DHT22;9958;33.196;-97.114;2023-02-08T03:39:55;8.50;99.90
19622;DHT22;9958;33.196;-97.114;2023-02-08T03:42:27;8.50;99.90
19622;DHT22;9958;33.196;-97.114;2023-02-08T03:44:59;8.60;99.90
19622;DHT22;9958;33.196;-97.114;2023-02-08T03:47:33;8.60;99.90
19622;DHT22;9958;33.196;-97.114;2023-02-08T03:50:06;8.60;99.90
19622;DHT22;9958;33.196;-97.114;2023-02-08T03:52:38;8.60;99.90
19622;DHT22;9958;33.196;-97.114;2023-02-08T03:55:09;8.70;99.90
19622;DHT22;9958;33.196;-97.114;2023-02-08T03:57:45;8.70;99.90
19622;DHT22;9958;33.196;-97.114;2023-02-08T04:00:16;8.70;99.90
19622;DHT22;9958;33.196;-97.114;2023-02-08T04:02:52;8.70;99.90
19622;DHT22;9958;33.196;-97.114;2023-02-08T04:05:21;8.70;99.90
19622;DHT22;9958;33.196;-97.114;2023-02-08T04:07:52;8.80;99.90
19622;DHT22;9958;33.196;-97.114;2023-02-08T04:10:21;8.80;99.90
19622;DHT22;9958;33.196;-97.114;2023-02-08T04:12:49;8.80;99.90
19622;DHT22;9958;33.196;-97.114;2023-02-08T04:15:18;8.80;99.90
19622;DHT22;9958;33.196;-97.114;2023-02-08T04:17:47;8.80;99.90
19622;DHT22;9958;33.196;-97.114;2023-02-08T04:20:15;8.80;99.90
19622;DHT22;9958;33.196;-97.114;2023-02-08T04:22:44;8.80;99.90
19622;DHT22;9958;33.196;-97.114;2023-02-08T04:25:14;8.80;99.90
19622;DHT22;9958;33.196;-97.114;2023-02-08T04:27:42;8.90;99.90
19622;DHT22;9958;33.196;-97.114;2023-02-08T04:30:11;8.90;99.90
19622;DHT22;9958;33.196;-97.114;2023-02-08T04:32:40;8.90;99.90
19622;DHT22;9958;33.196;-97.114;2023-02-08T04:35:08;8.90;99.90
19622;DHT22;9958;33.196;-97.114;2023-02-08T04:37:37;8.90;99.90
19622;DHT22;9958;33.196;-97.114;2023-02-08T04:40:06;9.00;99.90
19622;DHT22;9958;33.196;-97.114;2023-02-08T04:42:36;9.00;99.90
19622;DHT22;9958;33.196;-97.114;2023-02-08T04:45:04;9.00;99.90
19622;DHT22;9958;33.196;-97.114;2023-02-08T04:47:33;9.00;99.90
19622;DHT22;9958;33.196;-97.114;2023-02-08T04:50:01;9.00;99.90
19622;DHT22;9958;33.196;-97.114;2023-02-08T04:52:30;9.00;99.90
19622;DHT22;9958;33.196;-97.114;2023-02-08T04:54:58;9.00;99.90
19622;DHT22;9958;33.196;-97.114;2023-02-08T04:57:26;9.10;99.90
19622;DHT22;9958;33.196;-97.114;2023-02-08T04:59:56;9.00;99.90
19622;DHT22;9958;33.196;-97.114;2023-02-08T05:02:25;9.10;99.90
19622;DHT22;9958;33.196;-97.114;2023-02-08T05:04:53;9.10;99.90
19622;DHT22;9958;33.196;-97.114;2023-02-08T05:07:22;9.10;99.90
19622;DHT22;9958;33.196;-97.114;2023-02-08T05:09:50;9.10;99.90
19622;DHT22;9958;33.196;-97.114;2023-02-08T05:12:18;9.10;99.90
19622;DHT22;9958;33.196;-97.114;2023-02-08T05:14:47;9.10;99.90
19622;DHT22;9958;33.196;-97.114;2023-02-08T05:17:17;9.20;99.90
19622;DHT22;9958;33.196;-97.114;2023-02-08T05:19:45;9.20;99.90
19622;DHT22;9958;33.196;-97.114;2023-02-08T05:22:13;9.20;99.90
19622;DHT22;9958;33.196;-97.114;2023-02-08T05:24:42;9.20;99.90
19622;DHT22;9958;33.196;-97.114;2023-02-08T05:27:10;9.20;99.90
19622;DHT22;9958;33.196;-97.114;2023-02-08T05:29:39;9.20;99.90
19622;DHT22;9958;33.196;-97.114;2023-02-08T05:32:08;9.20;99.90
19622;DHT22;9958;33.196;-97.114;2023-02-08T05:34:38;9.20;99.90
19622;DHT22;9958;33.196;-97.114;2023-02-08T05:37:06;9.20;99.90
19622;DHT22;9958;33.196;-97.114;2023-02-08T05:39:35;9.20;99.90
19622;DHT22;9958;33.196;-97.114;2023-02-08T05:42:03;9.20;99.90
19622;DHT22;9958;33.196;-97.114;2023-02-08T05:44:32;9.20;99.90
19622;DHT22;9958;33.196;-97.114;2023-02-08T05:47:00;9.20;99.90
19622;DHT22;9958;33.196;-97.114;2023-02-08T05:49:29;9.10;99.90
19622;DHT22;9958;33.196;-97.114;2023-02-08T05:51:59;9.10;99.90
19622;DHT22;9958;33.196;-97.114;2023-02-08T05:54:27;9.10;99.90
19622;DHT22;9958;33.196;-97.114;2023-02-08T05:56:55;9.00;99.90
19622;DHT22;9958;33.196;-97.114;2023-02-08T05:59:24;9.00;99.90
19622;DHT22;9958;33.196;-97.114;2023-02-08T06:01:52;9.00;99.90
19622;DHT22;9958;33.196;-97.114;2023-02-08T06:04:21;8.90;99.90
19622;DHT22;9958;33.196;-97.114;2023-02-08T06:06:49;8.90;99.90
19622;DHT22;9958;33.196;-97.114;2023-02-08T06:09:19;8.90;99.90
19622;DHT22;9958;33.196;-97.114;2023-02-08T06:11:47;8.90;99.90
19622;DHT22;9958;33.196;-97.114;2023-02-08T06:14:16;8.80;99.90
19622;DHT22;9958;33.196;-97.114;2023-02-08T06:16:44;8.70;99.90
19622;DHT22;9958;33.196;-97.114;2023-02-08T06:19:12;8.60;99.90
19622;DHT22;9958;33.196;-97.114;2023-02-08T06:21:41;8.60;99.90
19622;DHT22;9958;33.196;-97.114;2023-02-08T06:24:09;8.60;99.90
19622;DHT22;9958;33.196;-97.114;2023-02-08T06:26:40;8.50;99.90
19622;DHT22;9958;33.196;-97.114;2023-02-08T06:29:09;8.50;99.90
19622;DHT22;9958;33.196;-97.114;2023-02-08T06:31:37;8.50;99.90
19622;DHT22;9958;33.196;-97.114;2023-02-08T06:34:05;8.40;99.90
19622;DHT22;9958;33.196;-97.114;2023-02-08T06:36:34;8.40;99.90
19622;DHT22;9958;33.196;-97.114;2023-02-08T06:39:02;8.40;99.90
19622;DHT22;9958;33.196;-97.114;2023-02-08T06:41:31;8.40;99.90
19622;DHT22;9958;33.196;-97.114;2023-02-08T06:44:01;8.30;99.90
19622;DHT22;9958;33.196;-97.114;2023-02-08T06:46:29;8.30;99.90
19622;DHT22;9958;33.196;-97.114;2023-02-08T06:48:57;8.20;99.90
19622;DHT22;9958;33.196;-97.114;2023-02-08T06:51:26;8.20;99.90
19622;DHT22;9958;33.196;-97.114;2023-02-08T06:53:54;8.10;99.90
19622;DHT22;9958;33.196;-97.114;2023-02-08T06:56:22;8.10;99.90
19622;DHT22;9958;33.196;-97.114;2023-02-08T06:58:51;8.10;99.90
19622;DHT22;9958;33.196;-97.114;2023-02-08T07:01:21;8.00;99.90
19622;DHT22;9958;33.196;-97.114;2023-02-08T07:03:49;8.00;99.90
19622;DHT22;9958;33.196;-97.114;2023-02-08T07:06:18;8.00;99.90
19622;DHT22;9958;33.196;-97.114;2023-02-08T07:08:47;8.00;99.90
19622;DHT22;9958;33.196;-97.114;2023-02-08T07:11:17;8.00;99.90
19622;DHT22;9958;33.196;-97.114;2023-02-08T07:13:46;8.00;99.90
19622;DHT22;9958;33.196;-97.114;2023-02-08T07:16:15;8.00;99.90
19622;DHT22;9958;33.196;-97.114;2023-02-08T07:18:45;8.00;99.90
19622;DHT22;9958;33.196;-97.114;2023-02-08T07:21:14;8.00;99.90
19622;DHT22;9958;33.196;-97.114;2023-02-08T07:23:43;8.00;99.90
19622;DHT22;9958;33.196;-97.114;2023-02-08T07:26:11;8.00;99.90
19622;DHT22;9958;33.196;-97.114;2023-02-08T07:28:41;8.00;99.90
19622;DHT22;9958;33.196;-97.114;2023-02-08T07:31:12;8.00;99.90
19622;DHT22;9958;33.196;-97.114;2023-02-08T07:33:40;8.00;99.90
19622;DHT22;9958;33.196;-97.114;2023-02-08T07:36:11;8.00;99.90
19622;DHT22;9958;33.196;-97.114;2023-02-08T07:38:39;8.00;99.90
19622;DHT22;9958;33.196;-97.114;2023-02-08T07:41:10;8.00;99.90
19622;DHT22;9958;33.196;-97.114;2023-02-08T07:43:39;7.90;99.90
19622;DHT22;9958;33.196;-97.114;2023-02-08T07:46:09;7.90;99.90
19622;DHT22;9958;33.196;-97.114;2023-02-08T07:48:38;7.90;99.90
19622;DHT22;9958;33.196;-97.114;2023-02-08T07:51:07;7.80;99.90
19622;DHT22;9958;33.196;-97.114;2023-02-08T07:53:38;7.80;99.90
19622;DHT22;9958;33.196;-97.114;2023-02-08T07:56:06;7.80;99.90
19622;DHT22;9958;33.196;-97.114;2023-02-08T07:58:35;7.80;99.90
19622;DHT22;9958;33.196;-97.114;2023-02-08T08:01:04;7.80;99.90
19622;DHT22;9958;33.196;-97.114;2023-02-08T08:03:33;7.80;99.90
19622;DHT22;9958;33.196;-97.114;2023-02-08T08:06:01;7.70;99.90
19622;DHT22;9958;33.196;-97.114;2023-02-08T08:08:29;7.70;99.90
19622;DHT22;9958;33.196;-97.114;2023-02-08T08:10:59;7.70;99.90
19622;DHT22;9958;33.196;-97.114;2023-02-08T08:13:28;7.70;99.90
19622;DHT22;9958;33.196;-97.114;2023-02-08T08:15:56;7.70;99.90
19622;DHT22;9958;33.196;-97.114;2023-02-08T08:18:25;7.70;99.90
19622;DHT22;9958;33.196;-97.114;2023-02-08T08:20:53;7.70;99.90
19622;DHT22;9958;33.196;-97.114;2023-02-08T08:23:21;7.70;99.90
19622;DHT22;9958;33.196;-97.114;2023-02-08T08:25:50;7.60;99.90
19622;DHT22;9958;33.196;-97.114;2023-02-08T08:28:20;7.60;99.90
19622;DHT22;9958;33.196;-97.114;2023-02-08T08:30:48;7.60;99.90
19622;DHT22;9958;33.196;-97.114;2023-02-08T08:33:17;7.60;99.90
19622;DHT22;9958;33.196;-97.114;2023-02-08T08:35:45;7.60;99.90
19622;DHT22;9958;33.196;-97.114;2023-02-08T08:38:14;7.60;99.90
19622;DHT22;9958;33.196;-97.114;2023-02-08T08:40:42;7.60;99.90
19622;DHT22;9958;33.196;-97.114;2023-02-08T08:43:10;7.60;99.90
19622;DHT22;9958;33.196;-97.114;2023-02-08T08:45:40;7.60;99.90
19622;DHT22;9958;33.196;-97.114;2023-02-08T08:48:08;7.50;99.90
19622;DHT22;9958;33.196;-97.114;2023-02-08T08:50:37;7.50;99.90
19622;DHT22;9958;33.196;-97.114;2023-02-08T08:53:05;7.50;99.90
19622;DHT22;9958;33.196;-97.114;2023-02-08T08:55:34;7.50;99.90
19622;DHT22;9958;33.196;-97.114;2023-02-08T08:58:02;7.50;99.90
19622;DHT22;9958;33.196;-97.114;2023-02-08T09:00:31;7.60;99.90
19622;DHT22;9958;33.196;-97.114;2023-02-08T09:03:01;7.60;99.90
19622;DHT22;9958;33.196;-97.114;2023-02-08T09:05:29;7.60;99.90
19622;DHT22;9958;33.196;-97.114;2023-02-08T09:07:57;7.70;99.90
19622;DHT22;9958;33.196;-97.114;2023-02-08T09:10:27;7.70;99.90
19622;DHT22;9958;33.196;-97.114;2023-02-08T09:12:55;7.60;99.90
19622;DHT22;9958;33.196;-97.114;2023-02-08T09:15:23;7.70;99.90
19622;DHT22;9958;33.196;-97.114;2023-02-08T09:17:52;7.60;99.90
19622;DHT22;9958;33.196;-97.114;2023-02-08T09:20:22;7.60;99.90
19622;DHT22;9958;33.196;-97.114;2023-02-08T09:22:50;7.60;99.90
19622;DHT22;9958;33.196;-97.114;2023-02-08T09:25:19;7.50;99.90
19622;DHT22;9958;33.196;-97.114;2023-02-08T09:27:47;7.50;99.90
19622;DHT22;9958;33.196;-97.114;2023-02-08T09:30:15;7.50;99.90
19622;DHT22;9958;33.196;-97.114;2023-02-08T09:32:44;7.40;99.90
19622;DHT22;9958;33.196;-97.114;2023-02-08T09:35:12;7.40;99.90
19622;DHT22;9958;33.196;-97.114;2023-02-08T09:37:43;7.40;99.90
19622;DHT22;9958;33.196;-97.114;2023-02-08T09:40:21;7.40;99.90
19622;DHT22;9958;33.196;-97.114;2023-02-08T09:42:57;7.40;99.90
19622;DHT22;9958;33.196;-97.114;2023-02-08T09:45:48;7.40;99.90
19622;DHT22;9958;33.196;-97.114;2023-02-08T09:48:20;7.40;99.90
19622;DHT22;9958;33.196;-97.114;2023-02-08T09:50:54;7.40;99.90
19622;DHT22;9958;33.196;-97.114;2023-02-08T09:53:28;7.40;99.90
19622;DHT22;9958;33.196;-97.114;2023-02-08T09:55:59;7.40;99.90
19622;DHT22;9958;33.196;-97.114;2023-02-08T09:58:30;7.40;99.90
19622;DHT22;9958;33.196;-97.114;2023-02-08T10:01:01;7.40;99.90
19622;DHT22;9958;33.196;-97.114;2023-02-08T10:03:35;7.50;99.90
19622;DHT22;9958;33.196;-97.114;2023-02-08T10:06:05;7.40;99.90
19622;DHT22;9958;33.196;-97.114;2023-02-08T10:08:35;7.50;99.90
19622;DHT22;9958;33.196;-97.114;2023-02-08T10:11:15;7.40;99.90
19622;DHT22;9958;33.196;-97.114;2023-02-08T10:13:59;7.50;99.90
19622;DHT22;9958;33.196;-97.114;2023-02-08T10:16:43;7.50;99.90
19622;DHT22;9958;33.196;-97.114;2023-02-08T10:19:22;7.50;99.90
19622;DHT22;9958;33.196;-97.114;2023-02-08T10:22:00;7.50;99.90
19622;DHT22;9958;33.196;-97.114;2023-02-08T10:24:46;7.50;99.90
19622;DHT22;9958;33.196;-97.114;2023-02-08T10:27:22;7.50;99.90
19622;DHT22;9958;33.196;-97.114;2023-02-08T10:30:18;7.50;99.90
19622;DHT22;9958;33.196;-97.114;2023-02-08T10:32:57;7.50;99.90
19622;DHT22;9958;33.196;-97.114;2023-02-08T10:35:29;7.50;99.90
19622;DHT22;9958;33.196;-97.114;2023-02-08T10:40:58;7.50;99.90
19622;DHT22;9958;33.196;-97.114;2023-02-08T10:43:34;7.50;99.90
19622;DHT22;9958;33.196;-97.114;2023-02-08T10:46:09;7.50;99.90
19622;DHT22;9958;33.196;-97.114;2023-02-08T10:48:48;7.50;99.90
19622;DHT22;9958;33.196;-97.114;2023-02-08T10:51:20;7.50;99.90
19622;DHT22;9958;33.196;-97.114;2023-02-08T10:53:49;7.50;99.90
19622;DHT22;9958;33.196;-97.114;2023-02-08T10:56:36;7.50;99.90
19622;DHT22;9958;33.196;-97.114;2023-02-08T10:59:19;7.60;99.90
19622;DHT22;9958;33.196;-97.114;2023-02-08T11:01:49;7.50;99.90
19622;DHT22;9958;33.196;-97.114;2023-02-08T11:04:17;7.60;99.90
19622;DHT22;9958;33.196;-97.114;2023-02-08T11:06:47;7.60;99.90
19622;DHT22;9958;33.196;-97.114;2023-02-08T11:09:25;7.60;99.90
19622;DHT22;9958;33.196;-97.114;2023-02-08T11:11:56;7.60;99.90
19622;DHT22;9958;33.196;-97.114;2023-02-08T11:14:27;7.70;99.90
19622;DHT22;9958;33.196;-97.114;2023-02-08T11:16:57;7.70;99.90
19622;DHT22;9958;33.196;-97.114;2023-02-08T11:19:32;7.70;99.90
19622;DHT22;9958;33.196;-97.114;2023-02-08T11:22:02;7.70;99.90
19622;DHT22;9958;33.196;-97.114;2023-02-08T11:24:34;7.70;99.90
19622;DHT22;9958;33.196;-97.114;2023-02-08T11:27:18;7.70;99.90
19622;DHT22;9958;33.196;-97.114;2023-02-08T11:30:19;7.80;99.90
19622;DHT22;9958;33.196;-97.114;2023-02-08T11:35:36;7.90;99.90
19622;DHT22;9958;33.196;-97.114;2023-02-08T11:38:05;7.80;99.90
19622;DHT22;9958;33.196;-97.114;2023-02-08T11:40:35;7.90;99.90
19622;DHT22;9958;33.196;-97.114;2023-02-08T11:43:05;7.90;99.90
19622;DHT22;9958;33.196;-97.114;2023-02-08T11:45:35;7.90;99.90
19622;DHT22;9958;33.196;-97.114;2023-02-08T11:48:05;7.90;99.90
19622;DHT22;9958;33.196;-97.114;2023-02-08T11:50:35;7.90;99.90
19622;DHT22;9958;33.196;-97.114;2023-02-08T11:53:06;7.80;99.90
19622;DHT22;9958;33.196;-97.114;2023-02-08T11:55:35;7.80;99.90
19622;DHT22;9958;33.196;-97.114;2023-02-08T11:58:19;7.80;99.90
19622;DHT22;9958;33.196;-97.114;2023-02-08T12:00:59;7.80;99.90
19622;DHT22;9958;33.196;-97.114;2023-02-08T12:03:29;7.90;99.90
19622;DHT22;9958;33.196;-97.114;2023-02-08T12:06:16;7.90;99.90
19622;DHT22;9958;33.196;-97.114;2023-02-08T12:08:54;7.90;99.90
19622;DHT22;9958;33.196;-97.114;2023-02-08T12:11:30;7.90;99.90
19622;DHT22;9958;33.196;-97.114;2023-02-08T12:14:14;7.90;99.90
19622;DHT22;9958;33.196;-97.114;2023-02-08T12:17:07;7.80;99.90
19622;DHT22;9958;33.196;-97.114;2023-02-08T12:20:01;7.80;99.90
19622;DHT22;9958;33.196;-97.114;2023-02-08T12:22:37;7.80;99.90
19622;DHT22;9958;33.196;-97.114;2023-02-08T12:25:20;7.80;99.90
19622;DHT22;9958;33.196;-97.114;2023-02-08T12:27:57;7.80;99.90
19622;DHT22;9958;33.196;-97.114;2023-02-08T12:30:33;7.80;99.90
19622;DHT22;9958;33.196;-97.114;2023-02-08T12:33:28;7.90;99.90
19622;DHT22;9958;33.196;-97.114;2023-02-08T12:36:18;7.90;99.90
19622;DHT22;9958;33.196;-97.114;2023-02-08T12:39:05;7.90;99.90
19622;DHT22;9958;33.196;-97.114;2023-02-08T12:42:14;7.90;99.90
19622;DHT22;9958;33.196;-97.114;2023-02-08T12:44:55;8.00;99.90
19622;DHT22;9958;33.196;-97.114;2023-02-08T12:47:42;8.00;99.90
19622;DHT22;9958;33.196;-97.114;2023-02-08T12:50:18;8.00;99.90
19622;DHT22;9958;33.196;-97.114;2023-02-08T12:52:52;8.00;99.90
19622;DHT22;9958;33.196;-97.114;2023-02-08T12:55:25;8.00;99.90
19622;DHT22;9958;33.196;-97.114;2023-02-08T12:57:58;8.00;99.90
19622;DHT22;9958;33.196;-97.114;2023-02-08T13:00:30;8.00;99.90
19622;DHT22;9958;33.196;-97.114;2023-02-08T13:03:05;8.00;99.90
19622;DHT22;9958;33.196;-97.114;2023-02-08T13:05:39;8.10;99.90
19622;DHT22;9958;33.196;-97.114;2023-02-08T13:08:20;8.10;99.90
19622;DHT22;9958;33.196;-97.114;2023-02-08T13:10:54;8.10;99.90
19622;DHT22;9958;33.196;-97.114;2023-02-08T13:13:27;8.10;99.90
19622;DHT22;9958;33.196;-97.114;2023-02-08T13:16:00;8.00;99.90
19622;DHT22;9958;33.196;-97.114;2023-02-08T13:18:34;8.00;99.90
19622;DHT22;9958;33.196;-97.114;2023-02-08T13:21:06;8.00;99.90
19622;DHT22;9958;33.196;-97.114;2023-02-08T13:23:41;8.00;99.90
19622;DHT22;9958;33.196;-97.114;2023-02-08T13:26:13;8.00;99.90
19622;DHT22;9958;33.196;-97.114;2023-02-08T13:28:46;8.00;99.90
19622;DHT22;9958;33.196;-97.114;2023-02-08T13:31:19;8.00;99.90
19622;DHT22;9958;33.196;-97.114;2023-02-08T13:33:54;8.00;99.90
19622;DHT22;9958;33.196;-97.114;2023-02-08T13:36:26;8.10;99.90
19622;DHT22;9958;33.196;-97.114;2023-02-08T13:38:58;8.10;99.90
19622;DHT22;9958;33.196;-97.114;2023-02-08T13:41:28;8.10;99.90
19622;DHT22;9958;33.196;-97.114;2023-02-08T13:43:59;8.10;99.90
19622;DHT22;9958;33.196;-97.114;2023-02-08T13:46:35;8.10;99.90
19622;DHT22;9958;33.196;-97.114;2023-02-08T13:49:05;8.10;99.90
19622;DHT22;9958;33.196;-97.114;2023-02-08T13:52:01;8.10;99.90
19622;DHT22;9958;33.196;-97.114;2023-02-08T13:54:29;8.10;99.90
19622;DHT22;9958;33.196;-97.114;2023-02-08T13:56:57;8.10;99.90
19622;DHT22;9958;33.196;-97.114;2023-02-08T13:59:31;8.10;99.90
19622;DHT22;9958;33.196;-97.114;2023-02-08T14:07:59;8.10;99.90
19622;DHT22;9958;33.196;-97.114;2023-02-08T14:10:33;8.20;99.90
19622;DHT22;9958;33.196;-97.114;2023-02-08T14:13:19;8.20;99.90
19622;DHT22;9958;33.196;-97.114;2023-02-08T14:16:25;8.20;99.90
19622;DHT22;9958;33.196;-97.114;2023-02-08T14:18:56;8.30;99.90
19622;DHT22;9958;33.196;-97.114;2023-02-08T14:21:33;8.30;99.90
19622;DHT22;9958;33.196;-97.114;2023-02-08T14:24:05;8.30;99.90
19622;DHT22;9958;33.196;-97.114;2023-02-08T14:26:35;8.30;99.90
19622;DHT22;9958;33.196;-97.114;2023-02-08T14:29:06;8.40;99.90
19622;DHT22;9958;33.196;-97.114;2023-02-08T14:31:41;8.30;99.90
19622;DHT22;9958;33.196;-97.114;2023-02-08T14:34:26;8.40;99.90
19622;DHT22;9958;33.196;-97.114;2023-02-08T14:37:03;8.40;99.90
19622;DHT22;9958;33.196;-97.114;2023-02-08T14:39:33;8.40;99.90
19622;DHT22;9958;33.196;-97.114;2023-02-08T14:42:03;8.40;99.90
19622;DHT22;9958;33.196;-97.114;2023-02-08T14:45:00;8.40;99.90
19622;DHT22;9958;33.196;-97.114;2023-02-08T14:48:19;8.40;99.90
19622;DHT22;9958;33.196;-97.114;2023-02-08T14:51:06;8.40;99.90
19622;DHT22;9958;33.196;-97.114;2023-02-08T14:53:47;8.40;99.90
19622;DHT22;9958;33.196;-97.114;2023-02-08T14:56:20;8.40;99.90
19622;DHT22;9958;33.196;-97.114;2023-02-08T14:58:52;8.40;99.90
19622;DHT22;9958;33.196;-97.114;2023-02-08T15:01:27;8.40;99.90
19622;DHT22;9958;33.196;-97.114;2023-02-08T15:04:01;8.40;99.90
19622;DHT22;9958;33.196;-97.114;2023-02-08T15:06:51;8.40;99.90
19622;DHT22;9958;33.196;-97.114;2023-02-08T15:09:25;8.40;99.90
19622;DHT22;9958;33.196;-97.114;2023-02-08T15:12:04;8.40;99.90
19622;DHT22;9958;33.196;-97.114;2023-02-08T15:14:35;8.40;99.90
19622;DHT22;9958;33.196;-97.114;2023-02-08T15:17:05;8.30;99.90
19622;DHT22;9958;33.196;-97.114;2023-02-08T15:19:37;8.30;99.90
19622;DHT22;9958;33.196;-97.114;2023-02-08T15:22:32;8.30;99.90
19622;DHT22;9958;33.196;-97.114;2023-02-08T15:25:09;8.30;99.90
19622;DHT22;9958;33.196;-97.114;2023-02-08T15:27:46;8.30;99.90
19622;DHT22;9958;33.196;-97.114;2023-02-08T15:30:26;8.30;99.90
19622;DHT22;9958;33.196;-97.114;2023-02-08T15:32:56;8.30;99.90
19622;DHT22;9958;33.196;-97.114;2023-02-08T15:35:26;8.30;99.90
19622;DHT22;9958;33.196;-97.114;2023-02-08T15:37:56;8.30;99.90
19622;DHT22;9958;33.196;-97.114;2023-02-08T15:40:29;8.30;99.90
19622;DHT22;9958;33.196;-97.114;2023-02-08T15:43:03;8.30;99.90
19622;DHT22;9958;33.196;-97.114;2023-02-08T15:45:37;8.30;99.90
19622;DHT22;9958;33.196;-97.114;2023-02-08T15:48:07;8.30;99.90
19622;DHT22;9958;33.196;-97.114;2023-02-08T15:50:37;8.30;99.90
19622;DHT22;9958;33.196;-97.114;2023-02-08T15:53:09;8.30;99.90
19622;DHT22;9958;33.196;-97.114;2023-02-08T15:55:46;8.30;99.90
19622;DHT22;9958;33.196;-97.114;2023-02-08T15:58:19;8.30;99.90
19622;DHT22;9958;33.196;-97.114;2023-02-08T16:00:54;8.30;99.90
19622;DHT22;9958;33.196;-97.114;2023-02-08T16:03:24;8.30;99.90
19622;DHT22;9958;33.196;-97.114;2023-02-08T16:05:56;8.30;99.90
19622;DHT22;9958;33.196;-97.114;2023-02-08T16:08:28;8.20;99.90
19622;DHT22;9958;33.196;-97.114;2023-02-08T16:10:59;8.20;99.90
19622;DHT22;9958;33.196;-97.114;2023-02-08T16:13:30;8.20;99.90
19622;DHT22;9958;33.196;-97.114;2023-02-08T16:16:15;8.20;99.90
19622;DHT22;9958;33.196;-97.114;2023-02-08T16:18:45;8.20;99.90
19622;DHT22;9958;33.196;-97.114;2023-02-08T16:21:28;8.20;99.90